createdAt,value
2023-02-17T00:01:39.010Z,19.84
2023-02-17T00:04:07.397Z,19.82
2023-02-17T00:06:35.703Z,19.82
2023-02-17T00:09:04.720Z,19.83
2023-02-17T00:11:33.147Z,19.84
2023-02-17T00:14:01.858Z,19.86
2023-02-17T00:16:30.513Z,19.87
2023-02-17T00:19:01.675Z,19.86
2023-02-17T00:21:32.879Z,19.87
2023-02-17T00:24:01.565Z,19.91
2023-02-17T00:26:30.155Z,19.92
2023-02-17T00:29:00.191Z,19.94
2023-02-17T00:31:28.527Z,19.98
2023-02-17T00:33:57.817Z,20.00
2023-02-17T00:36:27.190Z,20.04
2023-02-17T00:38:57.933Z,20.08
2023-02-17T00:41:28.391Z,20.12
2023-02-17T00:43:57.039Z,20.17
2023-02-17T00:46:26.160Z,20.20
2023-02-17T00:48:55.267Z,20.27
2023-02-17T00:51:24.028Z,20.30
2023-02-17T00:53:52.909Z,20.33
2023-02-17T00:56:21.229Z,20.41
2023-02-17T00:58:49.608Z,20.46
2023-02-17T01:01:17.965Z,20.51
2023-02-17T01:03:46.392Z,20.55
2023-02-17T01:06:23.436Z,20.62
2023-02-17T01:08:51.846Z,20.65
2023-02-17T01:11:22.396Z,20.72
2023-02-17T01:13:51.148Z,20.78
2023-02-17T01:16:23.631Z,20.83
2023-02-17T01:18:52.298Z,20.89
2023-02-17T01:21:25.565Z,20.95
2023-02-17T01:23:56.407Z,21.01
2023-02-17T01:26:27.670Z,21.08
2023-02-17T01:28:56.942Z,21.16
2023-02-17T01:31:28.193Z,21.21
2023-02-17T01:33:59.434Z,21.24
2023-02-17T01:36:28.045Z,21.32
2023-02-17T01:38:57.176Z,21.37
2023-02-17T01:41:28.518Z,21.39
2023-02-17T01:44:05.996Z,21.42
2023-02-17T01:46:36.255Z,21.49
2023-02-17T01:49:17.390Z,21.51
2023-02-17T01:51:48.559Z,21.54
2023-02-17T01:54:28.264Z,21.59
2023-02-17T01:57:00.866Z,21.63
2023-02-17T01:59:31.368Z,21.67
2023-02-17T02:02:04.084Z,21.72
2023-02-17T02:04:37.451Z,21.80
2023-02-17T02:07:11.617Z,21.84
2023-02-17T02:09:52.012Z,21.90
2023-02-17T02:12:28.230Z,21.92
2023-02-17T02:15:01.617Z,21.99
2023-02-17T02:17:54.255Z,22.07
2023-02-17T02:20:40.500Z,22.15
2023-02-17T02:23:35.796Z,22.26
2023-02-17T02:26:24.800Z,22.38
2023-02-17T02:29:18.556Z,22.45
2023-02-17T02:31:46.850Z,22.52
2023-02-17T02:34:35.541Z,22.59
2023-02-17T02:37:08.937Z,22.72
2023-02-17T02:39:43.958Z,22.86
2023-02-17T02:42:17.390Z,23.00
2023-02-17T02:44:45.664Z,23.15
2023-02-17T02:47:44.648Z,23.26
2023-02-17T02:50:35.041Z,23.33
2023-02-17T02:53:29.958Z,23.44
2023-02-17T02:56:14.979Z,23.56
2023-02-17T02:58:55.988Z,23.64
2023-02-17T03:01:36.454Z,23.69
2023-02-17T03:04:14.648Z,23.77
2023-02-17T03:06:53.982Z,23.87
2023-02-17T03:09:29.725Z,24.00
2023-02-17T03:11:59.838Z,24.10
2023-02-17T03:14:29.804Z,24.21
2023-02-17T03:17:01.181Z,24.32
2023-02-17T03:19:30.035Z,24.44
2023-02-17T03:22:26.305Z,24.55
2023-02-17T03:24:54.818Z,24.65
2023-02-17T03:27:23.135Z,24.72
2023-02-17T03:29:51.427Z,24.76
2023-02-17T03:32:19.806Z,24.78
2023-02-17T03:34:48.108Z,24.82
2023-02-17T03:37:16.437Z,24.83
2023-02-17T03:39:44.786Z,24.86
2023-02-17T03:42:13.096Z,24.89
2023-02-17T03:44:41.417Z,24.91
2023-02-17T03:47:09.736Z,24.95
2023-02-17T03:49:38.019Z,24.95
2023-02-17T03:52:06.752Z,24.98
2023-02-17T03:54:35.135Z,25.04
2023-02-17T03:57:03.629Z,25.10
2023-02-17T04:00:07.216Z,25.18
2023-02-17T04:02:35.527Z,25.32
2023-02-17T04:05:04.025Z,25.44
2023-02-17T04:07:32.366Z,25.49
2023-02-17T04:10:00.741Z,25.55
2023-02-17T04:12:29.055Z,25.63
2023-02-17T04:14:57.369Z,25.71
2023-02-17T04:17:25.706Z,25.76
2023-02-17T04:19:54.015Z,25.81
2023-02-17T04:22:22.369Z,25.84
2023-02-17T04:24:50.684Z,25.88
2023-02-17T04:27:18.989Z,25.94
2023-02-17T04:29:47.300Z,25.99
2023-02-17T04:32:15.914Z,26.06
2023-02-17T04:34:44.197Z,26.14
2023-02-17T04:37:12.501Z,26.21
2023-02-17T04:39:41.086Z,26.27
2023-02-17T04:42:09.463Z,26.32
2023-02-17T04:44:37.744Z,26.34
2023-02-17T04:47:06.080Z,26.32
2023-02-17T04:49:34.453Z,26.32
2023-02-17T04:52:02.939Z,26.35
2023-02-17T04:54:31.209Z,26.37
2023-02-17T04:56:59.507Z,26.40
2023-02-17T04:59:27.821Z,26.40
2023-02-17T05:01:56.110Z,26.48
2023-02-17T05:04:24.519Z,26.59
2023-02-17T05:06:52.882Z,26.65
2023-02-17T05:09:21.655Z,26.71
2023-02-17T05:11:49.960Z,26.75
2023-02-17T05:14:18.422Z,26.76
2023-02-17T05:16:46.886Z,26.78
2023-02-17T05:19:15.169Z,26.86
2023-02-17T05:21:43.491Z,26.93
2023-02-17T05:24:11.869Z,27.01
2023-02-17T05:26:40.240Z,27.13
2023-02-17T05:29:08.538Z,27.19
2023-02-17T05:31:36.981Z,27.26
2023-02-17T05:34:05.516Z,27.35
2023-02-17T05:36:33.819Z,27.40
2023-02-17T05:39:02.120Z,27.43
2023-02-17T05:41:30.687Z,27.47
2023-02-17T05:43:59.061Z,27.52
2023-02-17T05:46:27.397Z,27.56
2023-02-17T05:48:55.921Z,27.61
2023-02-17T05:51:24.218Z,27.61
2023-02-17T05:53:52.561Z,27.58
2023-02-17T05:56:20.876Z,27.59
2023-02-17T05:58:49.150Z,27.59
2023-02-17T06:01:17.632Z,27.61
2023-02-17T06:03:45.987Z,27.59
2023-02-17T06:06:14.556Z,27.57
2023-02-17T06:08:42.893Z,27.58
2023-02-17T06:11:11.207Z,27.60
2023-02-17T06:13:39.585Z,27.65
2023-02-17T06:16:08.378Z,27.68
2023-02-17T06:18:36.902Z,27.70
2023-02-17T06:21:05.447Z,27.75
2023-02-17T06:23:33.740Z,27.74
2023-02-17T06:26:02.067Z,27.77
2023-02-17T06:28:30.417Z,27.81
2023-02-17T06:30:58.705Z,27.84
2023-02-17T06:33:27.168Z,27.87
2023-02-17T06:35:55.488Z,27.85
2023-02-17T06:38:23.849Z,27.87
2023-02-17T06:40:52.199Z,27.85
2023-02-17T06:43:20.512Z,27.84
2023-02-17T06:45:48.925Z,27.81
2023-02-17T06:48:17.258Z,27.88
2023-02-17T06:50:45.579Z,27.89
2023-02-17T06:53:13.871Z,27.84
2023-02-17T06:55:42.161Z,27.86
2023-02-17T06:58:10.449Z,27.87
2023-02-17T07:00:38.757Z,27.88
2023-02-17T07:03:08.173Z,27.90
2023-02-17T07:05:38.060Z,27.92
2023-02-17T07:08:06.658Z,27.89
2023-02-17T07:10:35.113Z,27.87
2023-02-17T07:13:03.463Z,27.84
2023-02-17T07:15:31.807Z,27.86
2023-02-17T07:18:00.191Z,27.86
2023-02-17T07:20:28.533Z,27.89
2023-02-17T07:22:56.865Z,27.93
2023-02-17T07:25:25.173Z,27.98
2023-02-17T07:27:53.793Z,28.04
2023-02-17T07:30:22.280Z,28.05
2023-02-17T07:32:50.630Z,28.09
2023-02-17T07:35:18.958Z,28.08
2023-02-17T07:37:47.223Z,28.08
2023-02-17T07:40:15.840Z,28.10
2023-02-17T07:42:44.227Z,28.08
2023-02-17T07:45:12.548Z,28.08
2023-02-17T07:47:40.903Z,28.09
2023-02-17T07:50:10.437Z,28.07
2023-02-17T07:55:23.117Z,28.06
2023-02-17T07:57:51.497Z,28.06
2023-02-17T08:00:20.040Z,27.99
2023-02-17T08:02:48.439Z,27.99
2023-02-17T08:05:16.795Z,28.01
2023-02-17T08:07:45.081Z,28.00
2023-02-17T08:10:32.909Z,27.98
2023-02-17T08:13:19.393Z,27.97
2023-02-17T08:15:47.767Z,27.97
2023-02-17T08:18:16.127Z,27.99
2023-02-17T08:20:44.591Z,28.02
2023-02-17T08:23:13.409Z,28.02
2023-02-17T08:25:41.714Z,28.03
2023-02-17T08:28:12.620Z,27.99
2023-02-17T08:30:41.371Z,27.99
2023-02-17T08:33:09.769Z,27.96
2023-02-17T08:35:38.154Z,27.97
2023-02-17T08:38:06.492Z,27.93
2023-02-17T08:40:34.786Z,27.92
2023-02-17T08:43:03.650Z,27.88
2023-02-17T08:45:32.109Z,27.87
2023-02-17T08:48:00.752Z,27.83
2023-02-17T08:50:29.110Z,27.82
2023-02-17T08:52:57.477Z,27.80
2023-02-17T08:55:25.846Z,27.79
2023-02-17T08:57:54.919Z,27.77
2023-02-17T09:00:23.436Z,27.77
2023-02-17T09:02:51.735Z,27.76
2023-02-17T09:05:20.272Z,27.77
2023-02-17T09:07:48.590Z,27.76
2023-02-17T09:10:16.968Z,27.72
2023-02-17T09:12:45.342Z,27.70
2023-02-17T09:15:13.663Z,27.64
2023-02-17T09:17:42.678Z,27.59
2023-02-17T09:20:24.079Z,27.56
2023-02-17T09:22:53.454Z,27.49
2023-02-17T09:25:21.834Z,27.49
2023-02-17T09:27:50.360Z,27.43
2023-02-17T09:30:18.855Z,27.43
2023-02-17T09:32:47.309Z,27.42
2023-02-17T09:35:18.620Z,27.43
2023-02-17T09:37:47.552Z,27.42
2023-02-17T09:40:41.359Z,27.41
2023-02-17T09:43:33.543Z,27.40
2023-02-17T09:46:10.382Z,27.39
2023-02-17T09:48:40.908Z,27.37
2023-02-17T09:51:32.200Z,27.33
2023-02-17T09:54:20.343Z,27.32
2023-02-17T09:56:52.750Z,27.28
2023-02-17T09:59:46.133Z,27.23
2023-02-17T10:02:39.957Z,27.17
2023-02-17T10:05:12.750Z,27.13
2023-02-17T10:07:53.535Z,27.08
2023-02-17T10:10:32.370Z,27.06
2023-02-17T10:13:04.529Z,27.00
2023-02-17T10:15:40.039Z,26.96
2023-02-17T10:18:20.198Z,26.92
2023-02-17T10:20:59.435Z,26.90
2023-02-17T10:23:30.050Z,26.86
2023-02-17T10:26:35.210Z,26.83
2023-02-17T10:29:08.775Z,26.78
2023-02-17T10:31:49.139Z,26.76
2023-02-17T10:34:42.689Z,26.70
2023-02-17T10:37:16.411Z,26.65
2023-02-17T10:39:53.284Z,26.59
2023-02-17T10:42:27.257Z,26.52
2023-02-17T10:45:13.216Z,26.46
2023-02-17T10:47:42.275Z,26.39
2023-02-17T10:50:21.667Z,26.34
2023-02-17T10:52:51.785Z,26.27
2023-02-17T10:55:39.934Z,26.19
2023-02-17T10:58:25.343Z,26.11
2023-02-17T11:00:57.819Z,26.04
2023-02-17T11:03:29.816Z,25.99
2023-02-17T11:06:17.140Z,25.92
2023-02-17T11:08:53.615Z,25.85
2023-02-17T11:11:23.380Z,25.78
2023-02-17T11:14:10.109Z,25.72
2023-02-17T11:16:46.447Z,25.67
2023-02-17T11:19:26.666Z,25.60
2023-02-17T11:21:57.262Z,25.53
2023-02-17T11:24:26.342Z,25.47
2023-02-17T11:27:01.819Z,25.43
2023-02-17T11:29:30.994Z,25.38
2023-02-17T11:32:13.283Z,25.32
2023-02-17T11:34:43.922Z,25.25
2023-02-17T11:37:15.284Z,25.22
2023-02-17T11:39:46.435Z,25.17
2023-02-17T11:42:28.425Z,25.15
2023-02-17T11:45:01.787Z,25.12
2023-02-17T11:47:59.051Z,25.10
2023-02-17T11:50:51.093Z,25.09
2023-02-17T11:53:49.833Z,25.07
2023-02-17T11:56:24.607Z,25.05
2023-02-17T11:59:16.870Z,25.03
2023-02-17T12:02:09.187Z,24.96
2023-02-17T12:05:20.852Z,24.91
2023-02-17T12:08:23.164Z,24.87
2023-02-17T12:11:10.359Z,24.83
2023-02-17T12:14:01.711Z,24.78
2023-02-17T12:16:44.942Z,24.74
2023-02-17T12:19:51.503Z,24.71
2023-02-17T12:22:25.303Z,24.68
2023-02-17T12:25:22.459Z,24.66
2023-02-17T12:28:21.820Z,24.63
2023-02-17T12:30:59.287Z,24.60
2023-02-17T12:33:48.814Z,24.59
2023-02-17T12:36:19.935Z,24.58
2023-02-17T12:38:56.395Z,24.58
2023-02-17T12:41:48.379Z,24.56
2023-02-17T12:44:24.754Z,24.55
2023-02-17T12:47:02.558Z,24.55
2023-02-17T12:49:44.414Z,24.52
2023-02-17T12:52:24.393Z,24.49
2023-02-17T12:54:52.686Z,24.47
2023-02-17T12:58:04.822Z,24.43
2023-02-17T13:01:02.714Z,24.40
2023-02-17T13:03:34.315Z,24.37
2023-02-17T13:06:06.595Z,24.34
2023-02-17T13:08:56.594Z,24.32
2023-02-17T13:11:34.921Z,24.30
2023-02-17T13:14:41.408Z,24.27
2023-02-17T13:17:26.894Z,24.25
2023-02-17T13:20:13.097Z,24.22
2023-02-17T13:22:43.807Z,24.20
2023-02-17T13:25:37.613Z,24.17
2023-02-17T13:28:20.844Z,24.14
2023-02-17T13:30:53.111Z,24.12
2023-02-17T13:33:24.594Z,24.10
2023-02-17T13:35:53.323Z,24.08
2023-02-17T13:38:33.346Z,24.07
2023-02-17T13:41:05.401Z,24.05
2023-02-17T13:43:42.642Z,24.03
2023-02-17T13:46:25.347Z,24.03
2023-02-17T13:49:02.051Z,24.01
2023-02-17T13:51:33.064Z,23.99
2023-02-17T13:54:09.690Z,23.98
2023-02-17T13:56:38.101Z,23.98
2023-02-17T13:59:21.038Z,23.99
2023-02-17T14:01:50.444Z,23.99
2023-02-17T14:04:48.259Z,23.99
2023-02-17T14:07:17.652Z,23.97
2023-02-17T14:09:55.098Z,23.95
2023-02-17T14:12:25.183Z,23.92
2023-02-17T14:14:53.656Z,23.89
2023-02-17T14:17:33.445Z,23.87
2023-02-17T14:20:01.885Z,23.85
2023-02-17T14:22:32.740Z,23.83
2023-02-17T14:25:08.626Z,23.82
2023-02-17T14:27:48.163Z,23.84
2023-02-17T14:30:32.621Z,23.84
2023-02-17T14:33:06.197Z,23.84
2023-02-17T14:35:35.608Z,23.83
2023-02-17T14:38:20.905Z,23.83
2023-02-17T14:40:49.793Z,23.81
2023-02-17T14:43:18.391Z,23.80
2023-02-17T14:45:46.833Z,23.80
2023-02-17T14:48:15.243Z,23.80
2023-02-17T14:50:45.183Z,23.81
2023-02-17T14:53:22.388Z,23.82
2023-02-17T14:56:13.794Z,23.82
2023-02-17T14:58:42.221Z,23.82
2023-02-17T15:01:14.077Z,23.81
2023-02-17T15:03:42.666Z,23.79
2023-02-17T15:06:31.491Z,23.79
2023-02-17T15:09:02.472Z,23.79
2023-02-17T15:11:37.917Z,23.78
2023-02-17T15:14:06.884Z,23.77
2023-02-17T15:16:35.320Z,23.75
2023-02-17T15:19:03.674Z,23.71
2023-02-17T15:21:34.755Z,23.71
2023-02-17T15:24:04.545Z,23.68
2023-02-17T15:26:32.854Z,23.68
2023-02-17T15:29:01.385Z,23.68
2023-02-17T15:31:33.472Z,23.68
2023-02-17T15:34:02.510Z,23.69
2023-02-17T15:36:30.874Z,23.68
2023-02-17T15:38:59.225Z,23.67
2023-02-17T15:41:31.180Z,23.66
2023-02-17T15:44:00.055Z,23.65
2023-02-17T15:46:33.779Z,23.65
2023-02-17T15:49:02.200Z,23.66
2023-02-17T15:51:30.532Z,23.65
2023-02-17T15:53:59.044Z,23.64
2023-02-17T15:56:31.244Z,23.62
2023-02-17T15:59:10.186Z,23.60
2023-02-17T16:01:38.564Z,23.59
2023-02-17T16:04:11.121Z,23.58
2023-02-17T16:06:40.081Z,23.58
2023-02-17T16:09:09.139Z,23.55
2023-02-17T16:11:48.552Z,23.53
2023-02-17T16:14:33.287Z,23.51
2023-02-17T16:17:02.254Z,23.50
2023-02-17T16:19:30.904Z,23.49
2023-02-17T16:21:59.253Z,23.50
2023-02-17T16:24:27.541Z,23.49
2023-02-17T16:26:57.273Z,23.50
2023-02-17T16:29:25.773Z,23.50
2023-02-17T16:31:54.174Z,23.50
2023-02-17T16:34:24.732Z,23.50
2023-02-17T16:37:00.421Z,23.49
2023-02-17T16:39:28.801Z,23.47
2023-02-17T16:41:57.131Z,23.46
2023-02-17T16:44:25.573Z,23.43
2023-02-17T16:46:56.596Z,23.40
2023-02-17T16:49:34.982Z,23.40
2023-02-17T16:52:09.059Z,23.37
2023-02-17T16:54:37.477Z,23.36
2023-02-17T16:57:05.807Z,23.38
2023-02-17T16:59:34.084Z,23.36
2023-02-17T17:02:02.672Z,23.36
2023-02-17T17:04:30.958Z,23.36
2023-02-17T17:06:59.262Z,23.37
2023-02-17T17:09:27.593Z,23.36
2023-02-17T17:11:55.949Z,23.37
2023-02-17T17:14:24.516Z,23.38
2023-02-17T17:16:57.007Z,23.38
2023-02-17T17:19:25.770Z,23.39
2023-02-17T17:21:54.264Z,23.40
2023-02-17T17:24:22.956Z,23.40
2023-02-17T17:26:52.492Z,23.40
2023-02-17T17:29:21.611Z,23.41
2023-02-17T17:31:50.512Z,23.41
2023-02-17T17:34:18.952Z,23.42
2023-02-17T17:36:48.940Z,23.41
2023-02-17T17:39:20.286Z,23.40
2023-02-17T17:41:49.272Z,23.41
2023-02-17T17:44:18.988Z,23.39
2023-02-17T17:46:47.382Z,23.39
2023-02-17T17:49:18.866Z,23.37
2023-02-17T17:51:47.694Z,23.36
2023-02-17T17:54:16.131Z,23.36
2023-02-17T17:56:45.000Z,23.33
2023-02-17T17:59:15.048Z,23.32
2023-02-17T18:01:45.634Z,23.30
2023-02-17T18:04:14.850Z,23.28
2023-02-17T18:06:50.068Z,23.25
2023-02-17T18:09:31.981Z,23.23
2023-02-17T18:12:03.997Z,23.20
2023-02-17T18:14:33.011Z,23.18
2023-02-17T18:17:01.797Z,23.15
2023-02-17T18:19:31.798Z,23.13
2023-02-17T18:22:00.164Z,23.10
2023-02-17T18:24:29.199Z,23.07
2023-02-17T18:26:57.666Z,23.04
2023-02-17T18:29:26.294Z,23.00
2023-02-17T18:31:54.852Z,22.99
2023-02-17T18:34:23.309Z,22.96
2023-02-17T18:36:51.621Z,22.93
2023-02-17T18:39:19.904Z,22.90
2023-02-17T18:41:48.229Z,22.88
2023-02-17T18:44:16.601Z,22.85
2023-02-17T18:46:46.994Z,22.82
2023-02-17T18:49:15.387Z,22.81
2023-02-17T18:51:43.756Z,22.79
2023-02-17T18:54:13.776Z,22.76
2023-02-17T18:56:42.094Z,22.73
2023-02-17T18:59:10.395Z,22.72
2023-02-17T19:01:41.765Z,22.70
2023-02-17T19:04:14.016Z,22.69
2023-02-17T19:06:42.600Z,22.67
2023-02-17T19:09:11.107Z,22.63
2023-02-17T19:11:39.444Z,22.59
2023-02-17T19:14:07.805Z,22.56
2023-02-17T19:16:36.252Z,22.53
2023-02-17T19:19:05.161Z,22.51
2023-02-17T19:21:36.173Z,22.48
2023-02-17T19:24:04.914Z,22.46
2023-02-17T19:26:33.251Z,22.44
2023-02-17T19:29:01.513Z,22.43
2023-02-17T19:31:30.009Z,22.42
2023-02-17T19:33:58.430Z,22.39
2023-02-17T19:36:26.814Z,22.39
2023-02-17T19:38:57.848Z,22.38
2023-02-17T19:41:26.633Z,22.36
2023-02-17T19:43:54.959Z,22.36
2023-02-17T19:46:25.310Z,22.35
2023-02-17T19:48:53.708Z,22.33
2023-02-17T19:51:22.276Z,22.33
2023-02-17T19:53:50.616Z,22.32
2023-02-17T19:56:22.419Z,22.32
2023-02-17T19:58:50.976Z,22.33
2023-02-17T20:01:28.647Z,22.32
2023-02-17T20:03:58.648Z,22.32
2023-02-17T20:06:31.124Z,22.31
2023-02-17T20:09:02.843Z,22.28
2023-02-17T20:11:32.793Z,22.27
2023-02-17T20:14:02.535Z,22.26
2023-02-17T20:16:31.977Z,22.25
2023-02-17T20:19:02.836Z,22.25
2023-02-17T20:21:33.564Z,22.25
2023-02-17T20:24:02.361Z,22.24
2023-02-17T20:26:33.625Z,22.24
2023-02-17T20:29:03.155Z,22.22
2023-02-17T20:31:32.002Z,22.21
2023-02-17T20:34:00.574Z,22.19
2023-02-17T20:36:28.971Z,22.17
2023-02-17T20:38:57.249Z,22.17
2023-02-17T20:41:26.233Z,22.15
2023-02-17T20:43:54.559Z,22.14
2023-02-17T20:46:28.677Z,22.10
2023-02-17T20:48:57.702Z,22.08
2023-02-17T20:51:26.367Z,22.05
2023-02-17T20:53:54.648Z,22.02
2023-02-17T20:56:25.014Z,21.98
2023-02-17T20:58:54.392Z,21.97
2023-02-17T21:01:22.733Z,21.94
2023-02-17T21:03:51.043Z,21.93
2023-02-17T21:06:23.553Z,21.92
2023-02-17T21:08:54.790Z,21.91
2023-02-17T21:11:23.571Z,21.90
2023-02-17T21:13:51.923Z,21.91
2023-02-17T21:16:23.994Z,21.89
2023-02-17T21:18:52.371Z,21.88
2023-02-17T21:21:21.373Z,21.88
2023-02-17T21:23:49.855Z,21.86
2023-02-17T21:26:18.820Z,21.83
2023-02-17T21:28:47.856Z,21.84
2023-02-17T21:31:17.651Z,21.82
2023-02-17T21:33:46.251Z,21.79
2023-02-17T21:36:17.362Z,21.77
2023-02-17T21:38:45.944Z,21.75
2023-02-17T21:41:20.938Z,21.74
2023-02-17T21:44:07.999Z,21.72
2023-02-17T21:46:38.252Z,21.71
2023-02-17T21:49:06.537Z,21.70
2023-02-17T21:51:34.843Z,21.66
2023-02-17T21:54:03.159Z,21.63
2023-02-17T21:56:31.471Z,21.60
2023-02-17T21:59:00.054Z,21.58
2023-02-17T22:01:29.174Z,21.57
2023-02-17T22:03:58.742Z,21.55
2023-02-17T22:06:30.162Z,21.54
2023-02-17T22:08:59.933Z,21.51
2023-02-17T22:11:36.013Z,21.50
2023-02-17T22:14:07.843Z,21.49
2023-02-17T22:16:37.359Z,21.47
2023-02-17T22:19:07.678Z,21.44
2023-02-17T22:21:36.158Z,21.41
2023-02-17T22:24:04.999Z,21.38
2023-02-17T22:26:33.392Z,21.34
2023-02-17T22:29:01.700Z,21.32
2023-02-17T22:31:31.704Z,21.30
2023-02-17T22:34:03.352Z,21.30
2023-02-17T22:36:35.744Z,21.28
2023-02-17T22:39:06.224Z,21.28
2023-02-17T22:41:35.970Z,21.27
2023-02-17T22:44:04.988Z,21.25
2023-02-17T22:46:33.399Z,21.24
2023-02-17T22:49:02.480Z,21.20
2023-02-17T22:51:38.171Z,21.18
2023-02-17T22:54:08.284Z,21.15
2023-02-17T22:56:37.319Z,21.13
2023-02-17T22:59:06.594Z,21.11
2023-02-17T23:01:37.281Z,21.07
2023-02-17T23:04:06.867Z,21.04
2023-02-17T23:06:38.322Z,21.00
2023-02-17T23:09:09.618Z,20.95
2023-02-17T23:11:54.664Z,20.92
2023-02-17T23:14:33.786Z,20.87
2023-02-17T23:17:05.251Z,20.84
2023-02-17T23:19:33.890Z,20.81
2023-02-17T23:22:06.612Z,20.80
2023-02-17T23:24:35.335Z,20.79
2023-02-17T23:27:04.769Z,20.77
2023-02-17T23:29:34.605Z,20.74
2023-02-17T23:32:02.998Z,20.72
2023-02-17T23:34:31.763Z,20.72
2023-02-17T23:37:00.163Z,20.72
2023-02-17T23:39:28.663Z,20.71
2023-02-17T23:41:57.166Z,20.68
2023-02-17T23:44:25.607Z,20.66
2023-02-17T23:46:53.905Z,20.65
2023-02-17T23:49:22.291Z,20.65
2023-02-17T23:51:50.616Z,20.65
2023-02-17T23:54:19.013Z,20.67
2023-02-17T23:56:47.286Z,20.68
2023-02-17T23:59:15.649Z,20.73
